Terminal Aerodrome Forecast
Issued by NWS

Home | Current Version | Previous Version | Text Only | Print | Product List | Glossary On
Versions: 1 2 3 4 5 6 7 8 9 10 11 12 13 14 15 16 17 18
000
FTUS45 KVEF 241724
TAFBIH
TAF
KBIH 241724Z 2418/2518 35008KT P6SM FEW100
     FM242200 34010KT P6SM VCSH BKN100
      TEMPO 2423/2503 -SHRA BKN080
     FM250400 33007KT P6SM SCT080 BKN100
     FM250900 34007KT P6SM FEW080 SCT100=

USA.gov is the U.S. government's official web portal to all federal, state and local government web resources and services.